Etusivu
METAR-TAF:

METAR-TAF

Lentoasemat :

Dryden, Ontario, Kanada

Leveyspiiri: 49-50N, Pituuspiiri: 092-45W, korkeus merenpinnasta: 413 m

Tämänhetkinen sää

Tämä raportti tehtiin 39 minuuttia sitten, kello 01.00 UTC
Tuuli 7 kn etelästä/lounaasta
Lämpötila 6°C
Kosteus 39%
Ilmanpaine 1019 hPa
Näkyvyys: 14.5 km
selkeää

METAR: CYHD 090100Z AUTO 20007KT 9SM CLR 06/M07 A3009 RMK SLP214

Aika: 19:39 (01:39 UTC)

Sääennuste

Tämä raportti tehtiin 6 tuntia ja 0 minuuttia sitten, kello 19.39 UTC
Ennuste voimassa 08. päivästä klo 20 UTC - 09. päivään klo 08 UTC
Tuuli 12 kn lännestä
Näkyvyys: 10 km
Muutamia pilviä 2500 ft:n korkeudessa
Tulossa
08. päivästä klo 22 UTC - 08. päivään klo 24 UTC
Tuuli 5 kn etelästä/lounaasta
From 09. päivästä klo 0700 UTC
Tuuli 5 kn etelästä
Näkyvyys: 10 km
Hajonneita pilviä 12000 ft:n korkeudessa

TAF: CYHD 081939Z 0820/0908 26012KT P6SM FEW025 BECMG 0822/0824 21005KT FM090700 17005KT P6SM BKN120 RMK FCST BASED ON AUTO OBS. NXT FCST BY 090200Z

Säähavainnot ja -ennusteet yli 4000 lentoasemalta (METAR- ja TAF-raportit).

Käytössä olevat sääasemat on merkitty karttaan keltaisilla ja punaisilla pisteillä.

Aseta hiiri pisteen päälle nähdäksesi sääaseman nimen.

Klikkaa sitten nähdäksesi säähavainnot ja -ennusteet.

Kartan vaihtaminen: klikkaa mustalla rastilla varustettuja vihreitä pisteitä, niin voit zoomata sisään; viivalla varustettua vihreää pistettä, niin voit zoomata ulos tai vihreitä nuolia, niin pääset viereisille kartoille.


METAR-TAF: